createdAt,value
2018-02-20T00:02:06.423Z,101484.37
2018-02-20T00:05:12.001Z,101480.95
2018-02-20T00:08:17.634Z,101487.24
2018-02-20T00:11:23.215Z,101483.86
2018-02-20T00:14:28.731Z,101483.86
2018-02-20T00:17:34.294Z,101488.84
2018-02-20T00:20:39.856Z,101496.40
2018-02-20T00:23:45.186Z,101500.14
2018-02-20T00:26:50.704Z,101501.30
2018-02-20T00:29:56.311Z,101505.56
2018-02-20T00:33:01.847Z,101505.54
2018-02-20T00:36:07.401Z,101505.91
2018-02-20T00:39:16.412Z,101508.01
2018-02-20T00:42:23.886Z,101514.72
2018-02-20T00:45:29.473Z,101510.02
2018-02-20T00:48:35.043Z,101509.62
2018-02-20T00:51:40.577Z,101508.43
2018-02-20T00:54:46.140Z,101506.62
2018-02-20T00:57:51.689Z,101508.66
2018-02-20T01:00:57.276Z,101501.48
2018-02-20T01:04:02.813Z,101506.55
2018-02-20T01:07:08.414Z,101506.53
2018-02-20T01:10:13.939Z,101509.79
2018-02-20T01:13:19.514Z,101500.94
2018-02-20T01:16:25.035Z,101506.80
2018-02-20T01:19:30.608Z,101494.61
2018-02-20T01:22:36.151Z,101492.93
2018-02-20T01:25:41.721Z,101494.95
2018-02-20T01:28:47.241Z,101500.91
2018-02-20T01:31:52.813Z,101503.03
2018-02-20T01:34:58.329Z,101496.59
2018-02-20T01:38:03.889Z,101497.44
2018-02-20T01:41:09.420Z,101498.58
2018-02-20T01:44:14.993Z,101495.73
2018-02-20T01:47:20.554Z,101493.98
2018-02-20T01:50:26.179Z,101492.72
2018-02-20T01:53:31.761Z,101493.53
2018-02-20T01:56:37.354Z,101500.22
2018-02-20T01:59:43.101Z,101501.05
2018-02-20T02:02:48.631Z,101495.17
2018-02-20T02:05:54.209Z,101494.24
2018-02-20T02:08:59.760Z,101493.41
2018-02-20T02:12:05.328Z,101490.86
2018-02-20T02:15:10.842Z,101496.30
2018-02-20T02:18:16.438Z,101493.38
2018-02-20T02:21:21.998Z,101492.52
2018-02-20T02:24:27.557Z,101491.95
2018-02-20T02:27:33.101Z,101499.14
2018-02-20T02:30:38.696Z,101493.63
2018-02-20T02:33:44.218Z,101502.16
2018-02-20T02:36:49.806Z,101500.41
2018-02-20T02:39:55.360Z,101505.45
2018-02-20T02:43:00.940Z,101502.48
2018-02-20T02:46:06.481Z,101509.57
2018-02-20T02:49:12.039Z,101511.67
2018-02-20T02:52:17.577Z,101505.31
2018-02-20T02:55:23.173Z,101507.39
2018-02-20T02:58:28.733Z,101505.22
2018-02-20T03:01:34.250Z,101506.03
2018-02-20T03:04:39.842Z,101509.42
2018-02-20T03:07:45.386Z,101506.50
2018-02-20T03:10:50.941Z,101502.99
2018-02-20T03:13:57.300Z,101507.63
2018-02-20T03:17:02.859Z,101502.16
2018-02-20T03:20:08.488Z,101501.30
2018-02-20T03:23:14.064Z,101503.39
2018-02-20T03:26:19.634Z,101504.61
2018-02-20T03:29:25.159Z,101506.64
2018-02-20T03:32:30.733Z,101502.11
2018-02-20T03:35:36.259Z,101506.75
2018-02-20T03:38:41.825Z,101499.50
2018-02-20T03:41:47.345Z,101504.91
2018-02-20T03:44:52.910Z,101503.65
2018-02-20T03:47:58.481Z,101512.88
2018-02-20T03:51:04.000Z,101511.22
2018-02-20T03:54:09.590Z,101511.91
2018-02-20T03:57:15.152Z,101513.98
2018-02-20T04:00:20.896Z,101517.75
2018-02-20T04:03:26.420Z,101525.77
2018-02-20T04:06:31.984Z,101527.00
2018-02-20T04:09:37.601Z,101517.78
2018-02-20T04:12:49.554Z,101520.15
2018-02-20T04:15:56.796Z,101523.16
2018-02-20T04:19:02.349Z,101517.97
2018-02-20T04:22:07.861Z,101517.97
2018-02-20T04:25:13.426Z,101526.45
2018-02-20T04:28:18.942Z,101529.83
2018-02-20T04:31:24.549Z,101537.00
2018-02-20T04:34:30.113Z,101533.12
2018-02-20T04:37:36.917Z,101530.19
2018-02-20T04:40:44.796Z,101529.77
2018-02-20T04:43:50.346Z,101531.42
2018-02-20T04:46:55.932Z,101534.33
2018-02-20T04:50:02.522Z,101526.77
2018-02-20T04:53:08.091Z,101525.10
2018-02-20T04:56:14.294Z,101526.69
2018-02-20T04:59:19.867Z,101524.90
2018-02-20T05:02:25.392Z,101530.42
2018-02-20T05:05:31.364Z,101526.63
2018-02-20T05:08:37.888Z,101535.51
2018-02-20T05:11:43.451Z,101535.39
2018-02-20T05:14:49.965Z,101532.86
2018-02-20T05:17:55.296Z,101533.75
2018-02-20T05:21:00.849Z,101534.56
2018-02-20T05:24:06.422Z,101542.45
2018-02-20T05:27:12.945Z,101545.45
2018-02-20T05:30:32.096Z,101547.85
2018-02-20T05:33:37.662Z,101539.14
2018-02-20T05:36:43.177Z,101537.75
2018-02-20T05:39:50.956Z,101544.09
2018-02-20T05:42:57.011Z,101551.99
2018-02-20T05:46:02.609Z,101550.31
2018-02-20T05:49:08.143Z,101550.64
2018-02-20T05:52:13.701Z,101554.92
2018-02-20T05:55:19.257Z,101553.23
2018-02-20T05:58:24.787Z,101560.84
2018-02-20T06:01:30.357Z,101560.80
2018-02-20T06:04:35.869Z,101562.73
2018-02-20T06:07:45.705Z,101561.95
2018-02-20T06:10:51.294Z,101559.37
2018-02-20T06:13:56.867Z,101562.72
2018-02-20T06:17:02.401Z,101564.40
2018-02-20T06:20:07.977Z,101566.50
2018-02-20T06:23:13.499Z,101565.63
2018-02-20T06:26:19.071Z,101559.80
2018-02-20T06:29:24.585Z,101560.20
2018-02-20T06:32:30.145Z,101567.69
2018-02-20T06:35:35.651Z,101569.28
2018-02-20T06:38:41.230Z,101575.45
2018-02-20T06:41:46.750Z,101577.20
2018-02-20T06:44:52.324Z,101579.30
2018-02-20T06:47:57.881Z,101577.97
2018-02-20T06:51:03.394Z,101582.05
2018-02-20T06:54:08.982Z,101574.64
2018-02-20T06:57:14.493Z,101579.55
2018-02-20T07:00:20.087Z,101578.70
2018-02-20T07:03:25.645Z,101585.82
2018-02-20T07:06:31.238Z,101584.12
2018-02-20T07:09:36.792Z,101580.32
2018-02-20T07:12:42.356Z,101587.87
2018-02-20T07:15:47.914Z,101584.59
2018-02-20T07:18:53.466Z,101591.31
2018-02-20T07:21:58.983Z,101590.54
2018-02-20T07:25:04.566Z,101595.57
2018-02-20T07:28:10.121Z,101595.17
2018-02-20T07:31:15.693Z,101602.32
2018-02-20T07:34:21.201Z,101601.55
2018-02-20T07:37:26.758Z,101611.22
2018-02-20T07:40:32.346Z,101614.23
2018-02-20T07:43:37.855Z,101610.51
2018-02-20T07:46:43.436Z,101612.25
2018-02-20T07:49:48.949Z,101619.52
2018-02-20T07:52:54.515Z,101617.42
2018-02-20T07:56:00.117Z,101615.41
2018-02-20T07:59:05.642Z,101617.66
2018-02-20T08:02:11.194Z,101615.95
2018-02-20T08:05:16.718Z,101623.50
2018-02-20T08:08:22.270Z,101615.63
2018-02-20T08:11:27.876Z,101618.15
2018-02-20T08:14:33.394Z,101614.91
2018-02-20T08:17:41.427Z,101618.42
2018-02-20T08:20:46.786Z,101617.17
2018-02-20T08:23:52.301Z,101612.14
2018-02-20T08:26:57.875Z,101615.59
2018-02-20T08:30:03.152Z,101619.08
2018-02-20T08:33:08.746Z,101616.62
2018-02-20T08:36:14.262Z,101618.98
2018-02-20T08:39:19.818Z,101624.52
2018-02-20T08:42:25.341Z,101622.43
2018-02-20T08:45:30.889Z,101618.39
2018-02-20T08:48:36.414Z,101614.29
2018-02-20T08:51:41.971Z,101618.94
2018-02-20T08:54:47.494Z,101614.75
2018-02-20T08:57:53.075Z,101615.27
2018-02-20T09:00:58.632Z,101615.32
2018-02-20T09:04:04.234Z,101618.75
2018-02-20T09:07:09.817Z,101622.19
2018-02-20T09:10:15.582Z,101620.14
2018-02-20T09:13:21.102Z,101619.38
2018-02-20T09:16:26.672Z,101623.65
2018-02-20T09:19:32.191Z,101626.63
2018-02-20T09:22:37.767Z,101633.48
2018-02-20T09:25:43.362Z,101639.02
2018-02-20T09:28:48.954Z,101642.84
2018-02-20T09:31:54.508Z,101647.51
